createdAt,value
2019-05-10T00:00:54.945Z,1.10
2019-05-10T00:01:55.027Z,1.10
2019-05-10T00:02:54.916Z,1.00
2019-05-10T00:03:54.921Z,1.30
2019-05-10T00:04:54.902Z,1.10
2019-05-10T00:05:54.882Z,1.10
2019-05-10T00:06:54.876Z,1.10
2019-05-10T00:07:54.929Z,1.00
2019-05-10T00:08:54.887Z,0.90
2019-05-10T00:09:54.876Z,1.20
2019-05-10T00:10:54.830Z,1.10
2019-05-10T00:11:54.832Z,1.10
2019-05-10T00:12:54.815Z,1.00
2019-05-10T00:13:54.803Z,1.10
2019-05-10T00:14:54.819Z,1.00
2019-05-10T00:15:54.777Z,1.00
2019-05-10T00:16:54.779Z,0.90
2019-05-10T00:17:54.749Z,1.10
2019-05-10T00:18:54.758Z,1.00
2019-05-10T00:19:54.721Z,1.10
2019-05-10T00:20:54.724Z,1.10
2019-05-10T00:21:54.721Z,1.00
2019-05-10T00:22:54.704Z,1.10
2019-05-10T00:23:54.679Z,1.00
2019-05-10T00:25:03.951Z,1.00
2019-05-10T00:25:55.672Z,1.10
2019-05-10T00:26:54.646Z,1.10
2019-05-10T00:27:54.900Z,1.20
2019-05-10T00:28:54.625Z,1.10
2019-05-10T00:29:54.625Z,1.00
2019-05-10T00:30:54.625Z,1.00
2019-05-10T00:31:54.591Z,1.30
2019-05-10T00:32:54.615Z,1.10
2019-05-10T00:33:54.572Z,1.20
2019-05-10T00:34:54.556Z,1.00
2019-05-10T00:35:54.565Z,1.10
2019-05-10T00:36:54.544Z,1.10
2019-05-10T00:37:54.531Z,1.10
2019-05-10T00:38:54.523Z,1.00
2019-05-10T00:39:54.501Z,1.20
2019-05-10T00:40:54.498Z,0.90
2019-05-10T00:41:54.478Z,1.10
2019-05-10T00:42:54.490Z,1.00
2019-05-10T00:43:54.465Z,1.00
2019-05-10T00:44:54.445Z,1.00
2019-05-10T00:45:54.440Z,1.10
2019-05-10T00:46:54.421Z,1.20
2019-05-10T00:47:54.416Z,1.10
2019-05-10T00:48:54.443Z,1.10
2019-05-10T00:49:54.389Z,1.10
2019-05-10T00:50:54.384Z,1.20
2019-05-10T00:51:54.385Z,1.10
2019-05-10T00:52:54.356Z,0.80
2019-05-10T00:53:54.352Z,1.10
2019-05-10T00:54:54.373Z,1.00
2019-05-10T00:55:54.383Z,1.10
2019-05-10T00:56:54.314Z,1.10
2019-05-10T00:57:54.308Z,1.10
2019-05-10T00:58:54.289Z,1.10
2019-05-10T00:59:54.281Z,1.10
2019-05-10T01:00:54.266Z,1.10
2019-05-10T01:01:54.270Z,1.10
2019-05-10T01:02:54.257Z,1.20
2019-05-10T01:03:54.243Z,1.00
2019-05-10T01:04:54.239Z,1.10
2019-05-10T01:05:54.213Z,1.10
2019-05-10T01:06:56.387Z,1.00
2019-05-10T01:07:54.188Z,1.10
2019-05-10T01:08:54.177Z,1.00
2019-05-10T01:09:54.176Z,1.10
2019-05-10T01:10:54.180Z,1.20
2019-05-10T01:11:54.158Z,1.10
2019-05-10T01:12:54.141Z,1.10
2019-05-10T01:13:54.132Z,1.30
2019-05-10T01:14:54.119Z,1.10
2019-05-10T01:15:54.097Z,1.10
2019-05-10T01:16:54.100Z,1.10
2019-05-10T01:17:54.085Z,1.20
2019-05-10T01:18:54.073Z,1.20
2019-05-10T01:19:54.194Z,1.20
2019-05-10T01:20:54.043Z,1.10
2019-05-10T01:21:54.058Z,1.20
2019-05-10T01:22:54.047Z,1.00
2019-05-10T01:23:54.024Z,1.20
2019-05-10T01:24:54.000Z,1.10
2019-05-10T01:25:53.988Z,1.10
2019-05-10T01:26:53.987Z,1.10
2019-05-10T01:27:53.980Z,1.20
2019-05-10T01:28:53.957Z,0.90
2019-05-10T01:29:53.974Z,1.00
2019-05-10T01:30:53.937Z,0.90
2019-05-10T01:31:53.935Z,1.20
2019-05-10T01:32:53.925Z,1.10
2019-05-10T01:33:53.908Z,1.10
2019-05-10T01:34:53.890Z,1.10
2019-05-10T01:35:53.903Z,1.10
2019-05-10T01:36:53.897Z,1.20
2019-05-10T01:37:53.862Z,1.20
2019-05-10T01:38:53.855Z,1.00
2019-05-10T01:39:53.851Z,1.10
2019-05-10T01:40:53.838Z,1.10
2019-05-10T01:41:53.811Z,1.20
2019-05-10T01:42:53.816Z,1.00
2019-05-10T01:43:53.863Z,1.10
2019-05-10T01:44:53.782Z,1.20
2019-05-10T01:45:53.775Z,1.20
2019-05-10T01:46:53.774Z,1.10
2019-05-10T01:47:53.748Z,1.00
2019-05-10T01:48:53.738Z,1.00
2019-05-10T01:49:53.731Z,1.10
2019-05-10T01:50:53.710Z,1.00
2019-05-10T01:51:53.724Z,1.00
2019-05-10T01:52:53.721Z,1.00
2019-05-10T01:53:53.726Z,0.90
2019-05-10T01:54:53.688Z,1.00
2019-05-10T01:55:53.745Z,1.10
2019-05-10T01:56:53.643Z,1.10
2019-05-10T01:57:53.652Z,1.10
2019-05-10T01:58:53.619Z,1.10
2019-05-10T01:59:53.608Z,1.20
2019-05-10T02:00:53.598Z,1.10
2019-05-10T02:01:53.593Z,1.10
2019-05-10T02:02:53.598Z,1.10
2019-05-10T02:03:53.592Z,1.10
2019-05-10T02:04:53.561Z,1.10
2019-05-10T02:05:53.540Z,1.10
2019-05-10T02:06:53.535Z,1.10
2019-05-10T02:07:53.589Z,1.10
2019-05-10T02:08:53.521Z,1.10
2019-05-10T02:09:53.507Z,1.20
2019-05-10T02:10:53.483Z,1.20
2019-05-10T02:11:53.488Z,1.20
2019-05-10T02:12:53.477Z,1.20
2019-05-10T02:13:53.465Z,1.10
2019-05-10T02:14:53.454Z,1.00
2019-05-10T02:15:53.447Z,1.20
2019-05-10T02:16:53.427Z,1.10
2019-05-10T02:17:53.434Z,1.00
2019-05-10T02:18:53.428Z,1.10
2019-05-10T02:19:53.390Z,1.10
2019-05-10T02:20:53.397Z,1.10
2019-05-10T02:21:53.402Z,1.20
2019-05-10T02:22:53.365Z,1.00
2019-05-10T02:23:53.373Z,1.10
2019-05-10T02:24:53.329Z,1.00
2019-05-10T02:26:08.509Z,1.10
2019-05-10T02:26:54.330Z,1.10
2019-05-10T02:27:53.305Z,1.00
2019-05-10T02:28:53.288Z,1.10
2019-05-10T02:29:53.290Z,1.00
2019-05-10T02:30:53.261Z,1.20
2019-05-10T02:31:53.264Z,1.20
2019-05-10T02:32:53.261Z,1.10
2019-05-10T02:33:53.235Z,1.10
2019-05-10T02:34:53.222Z,1.10
2019-05-10T02:35:53.227Z,1.10
2019-05-10T02:36:53.191Z,1.00
2019-05-10T02:37:53.245Z,1.00
2019-05-10T02:38:53.181Z,1.00
2019-05-10T02:39:53.159Z,1.10
2019-05-10T02:40:53.163Z,1.00
2019-05-10T02:41:53.136Z,1.10
2019-05-10T02:42:53.129Z,1.20
2019-05-10T02:43:53.148Z,1.00
2019-05-10T02:44:53.123Z,1.00
2019-05-10T02:45:53.105Z,1.10
2019-05-10T02:46:53.084Z,1.10
2019-05-10T02:47:53.074Z,1.20
2019-05-10T02:48:53.169Z,1.00
2019-05-10T02:49:53.053Z,1.10
2019-05-10T02:50:53.042Z,1.20
2019-05-10T02:51:53.039Z,1.00
2019-05-10T02:52:53.026Z,1.10
2019-05-10T02:53:53.051Z,1.10
2019-05-10T02:54:53.010Z,1.00
2019-05-10T02:55:52.997Z,1.20
2019-05-10T02:56:52.969Z,1.10
2019-05-10T02:57:53.021Z,1.00
2019-05-10T02:58:52.960Z,1.10
2019-05-10T02:59:52.940Z,1.00
2019-05-10T03:00:52.937Z,1.10
2019-05-10T03:01:52.916Z,1.00
2019-05-10T03:02:52.918Z,1.10
2019-05-10T03:03:52.965Z,1.20
2019-05-10T03:04:52.878Z,1.20
2019-05-10T03:05:52.888Z,1.00
2019-05-10T03:06:52.868Z,1.00
2019-05-10T03:07:52.850Z,1.00
2019-05-10T03:08:52.835Z,1.10
2019-05-10T03:09:52.847Z,1.10
2019-05-10T03:10:52.818Z,1.00
2019-05-10T03:11:52.809Z,1.00
2019-05-10T03:12:52.809Z,1.10
2019-05-10T03:13:52.828Z,1.10
2019-05-10T03:14:52.788Z,1.00
2019-05-10T03:15:52.759Z,1.20
2019-05-10T03:16:52.750Z,1.10
2019-05-10T03:17:52.749Z,1.10
2019-05-10T03:18:52.745Z,1.20
2019-05-10T03:19:52.732Z,1.00
2019-05-10T03:20:52.736Z,1.00
2019-05-10T03:21:52.694Z,1.00
2019-05-10T03:22:52.687Z,1.00
2019-05-10T03:23:52.680Z,1.10
2019-05-10T03:24:52.680Z,1.20
2019-05-10T03:25:52.649Z,1.10
2019-05-10T03:26:52.647Z,1.00
2019-05-10T03:27:52.640Z,1.00
2019-05-10T03:28:52.633Z,0.90
2019-05-10T03:29:52.617Z,1.10
2019-05-10T03:30:52.603Z,1.20
2019-05-10T03:31:52.606Z,1.00
2019-05-10T03:32:52.580Z,1.10
2019-05-10T03:33:56.434Z,1.00
2019-05-10T03:34:53.577Z,1.20
2019-05-10T03:35:52.540Z,0.90
2019-05-10T03:36:52.532Z,1.00
2019-05-10T03:37:52.518Z,1.10
2019-05-10T03:38:52.511Z,1.10
2019-05-10T03:39:52.508Z,1.20
2019-05-10T03:40:52.498Z,1.10
2019-05-10T03:41:52.479Z,1.00
2019-05-10T03:42:52.484Z,1.20
2019-05-10T03:43:52.457Z,1.10
2019-05-10T03:44:52.449Z,1.20
2019-05-10T03:45:52.449Z,1.00
2019-05-10T03:46:52.425Z,1.00
2019-05-10T03:47:52.667Z,1.00
2019-05-10T03:48:52.419Z,1.10
2019-05-10T03:49:52.403Z,1.10
2019-05-10T03:50:52.379Z,1.10
2019-05-10T03:51:52.370Z,1.10
2019-05-10T03:52:52.824Z,1.00
2019-05-10T03:53:52.346Z,1.20
2019-05-10T03:54:52.341Z,1.10
2019-05-10T03:55:52.337Z,1.10
2019-05-10T03:57:10.928Z,1.10
2019-05-10T03:57:53.368Z,1.20
2019-05-10T03:58:52.281Z,1.20
2019-05-10T03:59:52.304Z,1.10
2019-05-10T04:00:52.283Z,1.20
2019-05-10T04:01:52.258Z,1.20
2019-05-10T04:02:52.241Z,1.10
2019-05-10T04:03:52.229Z,1.30
2019-05-10T04:04:52.223Z,1.20
2019-05-10T04:05:52.212Z,1.30
2019-05-10T04:06:52.206Z,1.20
2019-05-10T04:07:52.194Z,1.20
2019-05-10T04:08:52.175Z,1.30
2019-05-10T04:09:52.192Z,1.30
2019-05-10T04:10:52.188Z,1.20
2019-05-10T04:11:52.139Z,1.20
2019-05-10T04:12:52.131Z,1.20
2019-05-10T04:13:52.125Z,1.10
2019-05-10T04:14:52.131Z,1.20
2019-05-10T04:15:52.091Z,1.20
2019-05-10T04:16:52.109Z,1.20
2019-05-10T04:17:52.096Z,1.20
2019-05-10T04:18:52.057Z,1.10
2019-05-10T04:19:52.059Z,1.20
2019-05-10T04:20:52.065Z,1.20
2019-05-10T04:21:52.032Z,1.40
2019-05-10T04:22:52.043Z,1.30
2019-05-10T04:23:52.007Z,1.10
2019-05-10T04:24:52.000Z,1.10
2019-05-10T04:25:51.994Z,1.30
2019-05-10T04:26:51.986Z,1.40
2019-05-10T04:27:51.974Z,1.20
2019-05-10T04:28:51.955Z,1.30
2019-05-10T04:29:51.941Z,1.20
2019-05-10T04:30:51.942Z,1.20
2019-05-10T04:31:51.930Z,1.30
2019-05-10T04:32:51.907Z,1.20
2019-05-10T04:33:51.902Z,1.20
2019-05-10T04:34:51.892Z,1.10
2019-05-10T04:35:51.880Z,1.40
2019-05-10T04:36:51.889Z,1.20
2019-05-10T04:37:51.868Z,1.30
2019-05-10T04:38:51.848Z,1.20
2019-05-10T04:39:51.833Z,1.20
2019-05-10T04:40:51.838Z,1.40
2019-05-10T04:41:51.806Z,1.20
2019-05-10T04:42:51.802Z,1.20
2019-05-10T04:43:51.807Z,1.40
2019-05-10T04:44:53.471Z,1.30
2019-05-10T04:45:51.773Z,1.20
2019-05-10T04:46:51.761Z,1.20
2019-05-10T04:47:51.748Z,1.40
2019-05-10T04:48:51.752Z,1.20
2019-05-10T04:49:51.728Z,1.20
2019-05-10T04:50:51.720Z,1.20
2019-05-10T04:51:51.697Z,1.20
2019-05-10T04:52:51.695Z,1.20
2019-05-10T04:53:51.683Z,1.20
2019-05-10T04:54:51.668Z,1.30
2019-05-10T04:55:51.669Z,1.20
2019-05-10T04:56:51.648Z,1.40
2019-05-10T04:57:51.626Z,1.30
2019-05-10T04:58:51.624Z,1.30
2019-05-10T04:59:51.621Z,1.30
2019-05-10T05:00:51.607Z,1.10
2019-05-10T05:01:51.613Z,1.20
2019-05-10T05:02:51.584Z,1.20
2019-05-10T05:03:51.571Z,1.10
2019-05-10T05:04:51.563Z,1.20
2019-05-10T05:05:51.562Z,1.10
2019-05-10T05:06:51.545Z,1.00
2019-05-10T05:07:51.526Z,1.00
2019-05-10T05:08:51.570Z,1.00
2019-05-10T05:09:51.510Z,1.10
2019-05-10T05:10:51.515Z,0.90
2019-05-10T05:11:51.473Z,1.10
2019-05-10T05:12:51.482Z,1.10
2019-05-10T05:13:51.502Z,1.10
2019-05-10T05:14:51.463Z,1.00
2019-05-10T05:15:51.478Z,1.00
2019-05-10T05:16:51.426Z,1.10
2019-05-10T05:17:51.406Z,1.00
2019-05-10T05:18:51.399Z,0.80
2019-05-10T05:19:51.405Z,0.90
2019-05-10T05:20:51.377Z,0.90
2019-05-10T05:21:51.392Z,1.00
2019-05-10T05:22:51.348Z,0.90
2019-05-10T05:23:51.347Z,0.90
2019-05-10T05:24:55.108Z,1.00
2019-05-10T05:25:52.327Z,1.10
2019-05-10T05:26:51.310Z,1.00
2019-05-10T05:28:06.686Z,1.00
2019-05-10T05:28:52.290Z,1.10
2019-05-10T05:29:51.275Z,1.00
2019-05-10T05:30:51.283Z,0.80
2019-05-10T05:31:53.938Z,0.90
2019-05-10T05:32:52.239Z,0.90
2019-05-10T05:33:51.238Z,0.90
2019-05-10T05:34:51.211Z,0.90
2019-05-10T05:35:51.202Z,0.80
2019-05-10T05:36:51.260Z,1.00
2019-05-10T05:37:51.176Z,1.20
2019-05-10T05:38:51.170Z,1.10
2019-05-10T05:39:51.157Z,1.10
2019-05-10T05:40:51.146Z,1.20
2019-05-10T05:41:52.194Z,0.90
2019-05-10T05:42:51.135Z,1.00
2019-05-10T05:43:51.119Z,1.20
2019-05-10T05:44:51.122Z,0.90
2019-05-10T05:45:51.109Z,0.90
2019-05-10T05:46:51.086Z,1.10
2019-05-10T05:47:51.106Z,1.10
2019-05-10T05:48:51.661Z,0.90
2019-05-10T05:49:51.061Z,0.90
2019-05-10T05:50:51.037Z,0.90
2019-05-10T05:51:51.024Z,1.20
2019-05-10T05:52:51.034Z,0.80
2019-05-10T05:53:51.050Z,0.90
2019-05-10T05:54:52.834Z,0.90
2019-05-10T05:55:51.977Z,0.70
2019-05-10T05:56:53.066Z,0.90
2019-05-10T05:57:50.988Z,0.90
2019-05-10T05:58:50.965Z,0.90
2019-05-10T05:59:50.941Z,0.90
2019-05-10T06:00:50.937Z,0.80
2019-05-10T06:01:50.930Z,0.90
2019-05-10T06:02:50.929Z,0.70
2019-05-10T06:03:50.899Z,0.80
2019-05-10T06:04:50.891Z,0.90
2019-05-10T06:05:50.885Z,0.90
2019-05-10T06:06:53.601Z,1.00
2019-05-10T06:07:52.505Z,0.90
2019-05-10T06:08:54.428Z,0.90
2019-05-10T06:09:51.846Z,0.90
2019-05-10T06:10:57.897Z,1.00
2019-05-10T06:11:51.799Z,0.90
2019-05-10T06:12:52.894Z,0.80
2019-05-10T06:13:50.821Z,0.80
2019-05-10T06:14:52.391Z,1.20
2019-05-10T06:15:50.764Z,1.50
2019-05-10T06:16:52.944Z,1.90
2019-05-10T06:17:56.467Z,1.90
2019-05-10T06:18:51.731Z,2.10
2019-05-10T06:19:50.723Z,1.90
2019-05-10T06:20:50.718Z,2.20
2019-05-10T06:21:50.698Z,2.00
2019-05-10T06:23:05.812Z,1.40
2019-05-10T06:23:51.677Z,1.40
2019-05-10T06:24:52.405Z,1.40
2019-05-10T06:25:50.658Z,1.10
2019-05-10T06:26:50.654Z,1.10
2019-05-10T06:27:50.629Z,1.20
2019-05-10T06:29:03.319Z,1.00
2019-05-10T06:29:51.614Z,1.40
2019-05-10T06:30:50.606Z,1.10
2019-05-10T06:31:50.578Z,0.90
2019-05-10T06:32:53.233Z,1.20
2019-05-10T06:33:51.565Z,1.20
2019-05-10T06:34:50.568Z,1.30
2019-05-10T06:35:50.538Z,1.20
2019-05-10T06:36:50.531Z,1.30
2019-05-10T06:37:50.517Z,1.20
2019-05-10T06:38:50.510Z,1.20
2019-05-10T06:39:50.504Z,1.30
2019-05-10T06:40:50.511Z,1.20
2019-05-10T06:41:55.978Z,1.10
2019-05-10T06:42:51.470Z,1.20
2019-05-10T06:43:51.528Z,1.20
2019-05-10T06:44:50.444Z,1.10
2019-05-10T06:45:52.323Z,1.20
2019-05-10T06:46:50.431Z,1.20
2019-05-10T06:47:53.495Z,1.30
2019-05-10T06:48:50.418Z,1.40
2019-05-10T06:49:52.333Z,1.10
2019-05-10T06:50:50.386Z,1.20
2019-05-10T06:51:51.052Z,1.20
2019-05-10T06:52:52.181Z,1.10
2019-05-10T06:53:53.567Z,1.20
2019-05-10T06:54:50.324Z,1.10
2019-05-10T06:55:50.325Z,1.20
2019-05-10T06:56:50.313Z,1.10
2019-05-10T06:57:58.861Z,1.10
2019-05-10T06:58:51.306Z,1.00
2019-05-10T06:59:50.289Z,1.00
2019-05-10T07:00:50.262Z,1.00
2019-05-10T07:01:52.149Z,1.30
2019-05-10T07:02:51.051Z,1.00
2019-05-10T07:03:50.243Z,1.10
2019-05-10T07:04:51.028Z,1.10
2019-05-10T07:05:50.221Z,1.10
2019-05-10T07:06:50.195Z,1.20
2019-05-10T07:07:50.201Z,1.10
2019-05-10T07:08:51.680Z,1.10
2019-05-10T07:10:15.721Z,1.10
2019-05-10T07:10:51.157Z,1.00
2019-05-10T07:11:50.150Z,1.30
2019-05-10T07:12:50.173Z,1.00
2019-05-10T07:13:53.032Z,1.20
2019-05-10T07:14:50.118Z,1.20
2019-05-10T07:15:50.138Z,1.10
2019-05-10T07:16:50.093Z,1.10
2019-05-10T07:17:50.119Z,1.10
2019-05-10T07:18:54.882Z,1.20
2019-05-10T07:19:54.917Z,1.10
2019-05-10T07:20:50.081Z,1.30
2019-05-10T07:21:51.254Z,1.00
2019-05-10T07:22:50.032Z,1.10
2019-05-10T07:23:50.029Z,1.20
2019-05-10T07:24:50.009Z,1.10
2019-05-10T07:25:49.997Z,1.00
2019-05-10T07:26:50.002Z,1.20
2019-05-10T07:27:50.545Z,1.10
2019-05-10T07:28:51.807Z,1.10
2019-05-10T07:29:50.941Z,1.10
2019-05-10T07:30:50.000Z,1.20
2019-05-10T07:31:49.940Z,1.30
2019-05-10T07:32:54.632Z,1.10
2019-05-10T07:33:50.902Z,1.40
2019-05-10T07:34:58.959Z,1.10
2019-05-10T07:35:50.878Z,1.20
2019-05-10T07:36:49.878Z,1.20
2019-05-10T07:37:51.759Z,1.10
2019-05-10T07:38:49.847Z,1.10
2019-05-10T07:39:49.859Z,1.10
2019-05-10T07:40:49.825Z,1.00
2019-05-10T07:41:49.830Z,0.90
2019-05-10T07:42:49.800Z,1.10
2019-05-10T07:43:49.796Z,1.10
2019-05-10T07:44:49.779Z,1.00
2019-05-10T07:45:49.782Z,1.10
2019-05-10T07:46:54.245Z,1.10
2019-05-10T07:47:50.741Z,1.10
2019-05-10T07:48:53.311Z,1.30
2019-05-10T07:49:49.721Z,1.00
2019-05-10T07:50:51.922Z,1.10
2019-05-10T07:51:49.729Z,1.10
2019-05-10T07:52:49.690Z,1.30
2019-05-10T07:53:49.678Z,1.10
2019-05-10T07:54:49.672Z,1.10
2019-05-10T07:55:49.659Z,1.10
2019-05-10T07:56:49.651Z,1.20
2019-05-10T07:57:49.656Z,1.10
2019-05-10T07:58:49.643Z,1.10
2019-05-10T07:59:51.020Z,1.20
2019-05-10T08:00:49.622Z,1.10
2019-05-10T08:01:49.600Z,0.90
2019-05-10T08:02:55.742Z,1.10
2019-05-10T08:03:52.477Z,1.00
2019-05-10T08:04:53.319Z,1.10
2019-05-10T08:05:55.071Z,1.00
2019-05-10T08:06:52.088Z,1.20
2019-05-10T08:07:49.684Z,1.10
2019-05-10T08:08:49.819Z,1.20
2019-05-10T08:09:49.514Z,1.10
2019-05-10T08:10:49.512Z,1.00
2019-05-10T08:11:54.163Z,1.00
2019-05-10T08:12:49.469Z,1.00
2019-05-10T08:13:49.460Z,1.00
2019-05-10T08:14:53.379Z,1.10
2019-05-10T08:15:49.447Z,1.10
2019-05-10T08:16:58.167Z,1.10
2019-05-10T08:17:50.979Z,1.30
2019-05-10T08:18:49.910Z,1.00
2019-05-10T08:19:49.403Z,1.20
2019-05-10T08:20:55.119Z,1.00
2019-05-10T08:21:56.531Z,1.00
2019-05-10T08:22:52.397Z,1.10
2019-05-10T08:23:49.351Z,1.10
2019-05-10T08:24:52.914Z,1.10
2019-05-10T08:25:53.100Z,1.10
2019-05-10T08:26:49.315Z,0.90
2019-05-10T08:27:54.991Z,1.10
2019-05-10T08:28:52.414Z,1.10
2019-05-10T08:29:52.939Z,1.00
2019-05-10T08:30:53.666Z,1.10
2019-05-10T08:31:53.606Z,1.10
2019-05-10T08:32:52.443Z,1.10
2019-05-10T08:33:56.329Z,1.10
2019-05-10T08:34:53.073Z,0.90
2019-05-10T08:35:52.538Z,1.10
2019-05-10T08:36:51.993Z,1.00
2019-05-10T08:37:49.210Z,1.00
2019-05-10T08:39:02.430Z,1.00
2019-05-10T08:39:55.615Z,1.10
2019-05-10T08:40:52.456Z,1.10
2019-05-10T08:42:01.367Z,1.20
2019-05-10T08:43:03.186Z,1.00
2019-05-10T08:43:52.394Z,1.10
2019-05-10T08:44:53.648Z,1.00
2019-05-10T08:45:52.375Z,1.40
2019-05-10T08:46:49.097Z,1.60
2019-05-10T08:47:52.818Z,1.80
2019-05-10T08:48:51.361Z,1.80
2019-05-10T08:49:59.505Z,1.90
2019-05-10T08:50:56.923Z,1.90
2019-05-10T08:51:52.108Z,1.40
2019-05-10T08:52:49.033Z,1.40
2019-05-10T08:53:53.489Z,1.20
2019-05-10T08:54:50.025Z,1.20
2019-05-10T08:55:49.004Z,1.10
2019-05-10T08:56:55.023Z,1.10
2019-05-10T08:57:52.336Z,1.30
2019-05-10T08:58:48.984Z,1.20
2019-05-10T08:59:54.245Z,1.10
2019-05-10T09:01:01.484Z,1.10
2019-05-10T09:01:50.837Z,1.30
2019-05-10T09:02:48.946Z,1.20
2019-05-10T09:03:55.047Z,1.20
2019-05-10T09:04:50.315Z,1.10
2019-05-10T09:05:48.894Z,1.10
2019-05-10T09:06:55.374Z,1.20
2019-05-10T09:07:52.053Z,1.40
2019-05-10T09:08:55.331Z,1.20
2019-05-10T09:09:50.747Z,1.30
2019-05-10T09:10:48.840Z,1.20
2019-05-10T09:11:48.845Z,1.30
2019-05-10T09:12:53.682Z,1.20
2019-05-10T09:13:49.799Z,1.30
2019-05-10T09:14:49.005Z,1.30
2019-05-10T09:15:56.092Z,1.10
2019-05-10T09:16:59.713Z,1.20
2019-05-10T09:17:49.772Z,1.10
2019-05-10T09:18:51.135Z,1.70
2019-05-10T09:19:48.743Z,1.70
2019-05-10T09:20:48.752Z,1.60
2019-05-10T09:21:50.069Z,1.30
2019-05-10T09:22:48.703Z,1.60
2019-05-10T09:23:52.782Z,1.30
2019-05-10T09:24:50.079Z,1.40
2019-05-10T09:25:48.704Z,1.30
2019-05-10T09:26:54.775Z,1.20
2019-05-10T09:27:49.651Z,1.40
2019-05-10T09:28:55.552Z,1.40
2019-05-10T09:29:49.639Z,1.40
2019-05-10T09:30:57.561Z,1.30
2019-05-10T09:31:52.835Z,1.40
2019-05-10T09:32:48.614Z,1.20
2019-05-10T09:33:49.551Z,1.60
2019-05-10T09:34:48.630Z,1.30
2019-05-10T09:35:52.371Z,1.30
2019-05-10T09:36:49.606Z,1.10
2019-05-10T09:37:54.057Z,1.20
2019-05-10T09:38:49.522Z,1.20
2019-05-10T09:39:55.380Z,1.30
2019-05-10T09:40:52.739Z,1.40
2019-05-10T09:41:52.493Z,1.20
2019-05-10T09:42:48.511Z,1.30
2019-05-10T09:43:50.360Z,1.20
2019-05-10T09:44:48.472Z,1.30
2019-05-10T09:45:48.530Z,1.30
2019-05-10T09:46:48.455Z,1.20
2019-05-10T09:47:48.437Z,1.40
2019-05-10T09:48:48.432Z,1.30
2019-05-10T09:49:54.043Z,1.20
2019-05-10T09:50:49.441Z,1.20
2019-05-10T09:51:48.400Z,1.40
2019-05-10T09:52:48.398Z,1.20
2019-05-10T09:53:48.695Z,1.30
2019-05-10T09:54:49.570Z,1.20
2019-05-10T09:55:55.128Z,1.40
2019-05-10T09:56:52.248Z,1.20
2019-05-10T09:57:48.319Z,1.40
2019-05-10T09:58:48.648Z,1.10
2019-05-10T09:59:48.307Z,1.30
2019-05-10T10:00:48.645Z,1.30
2019-05-10T10:01:48.525Z,1.20
2019-05-10T10:02:56.407Z,1.20
2019-05-10T10:03:49.271Z,1.20
2019-05-10T10:04:48.236Z,1.30
2019-05-10T10:05:48.480Z,1.00
2019-05-10T10:06:52.696Z,1.00
2019-05-10T10:07:48.262Z,1.20
2019-05-10T10:08:51.864Z,1.20
2019-05-10T10:09:49.198Z,1.90
2019-05-10T10:10:48.173Z,1.70
2019-05-10T10:11:57.960Z,2.40
2019-05-10T10:12:49.195Z,2.10
2019-05-10T10:13:51.918Z,2.00
2019-05-10T10:14:49.131Z,2.20
2019-05-10T10:15:51.966Z,1.80
2019-05-10T10:16:57.825Z,1.80
2019-05-10T10:17:49.095Z,1.90
2019-05-10T10:18:48.082Z,1.70
2019-05-10T10:19:48.217Z,1.50
2019-05-10T10:20:48.265Z,1.60
2019-05-10T10:21:48.060Z,1.50
2019-05-10T10:22:49.779Z,1.40
2019-05-10T10:23:49.032Z,1.50
2019-05-10T10:24:49.050Z,1.80
2019-05-10T10:25:49.016Z,2.20
2019-05-10T10:26:48.288Z,1.70
2019-05-10T10:27:48.182Z,1.70
2019-05-10T10:28:49.672Z,1.90
2019-05-10T10:29:48.976Z,1.70
2019-05-10T10:30:52.747Z,1.90
2019-05-10T10:31:55.270Z,1.40
2019-05-10T10:32:48.944Z,1.60
2019-05-10T10:33:54.832Z,1.60
2019-05-10T10:34:54.101Z,1.60
2019-05-10T10:35:48.895Z,1.30
2019-05-10T10:36:47.904Z,1.50
2019-05-10T10:37:47.869Z,1.70
2019-05-10T10:38:49.607Z,1.50
2019-05-10T10:39:47.860Z,1.60
2019-05-10T10:40:47.850Z,1.60
2019-05-10T10:41:49.187Z,1.50
2019-05-10T10:42:47.822Z,1.50
2019-05-10T10:43:48.612Z,1.40
2019-05-10T10:44:48.400Z,1.60
2019-05-10T10:45:47.785Z,1.60
2019-05-10T10:46:48.138Z,1.50
2019-05-10T10:47:47.812Z,1.40
2019-05-10T10:48:49.136Z,1.20
2019-05-10T10:49:47.743Z,1.50
2019-05-10T10:50:53.880Z,1.60
2019-05-10T10:51:48.730Z,1.70
2019-05-10T10:52:47.719Z,1.40
2019-05-10T10:53:47.726Z,1.80
2019-05-10T10:54:48.027Z,1.90
2019-05-10T10:55:54.050Z,1.70
2019-05-10T10:56:48.664Z,1.60
2019-05-10T10:57:48.199Z,1.60
2019-05-10T10:58:49.923Z,1.60
2019-05-10T10:59:47.641Z,1.50
2019-05-10T11:00:48.236Z,2.10
2019-05-10T11:01:56.610Z,1.90
2019-05-10T11:02:52.130Z,1.90
2019-05-10T11:03:49.095Z,1.60
2019-05-10T11:04:48.973Z,1.90
2019-05-10T11:05:47.583Z,1.70
2019-05-10T11:06:47.553Z,1.60
2019-05-10T11:07:47.979Z,1.80
2019-05-10T11:08:47.550Z,1.60
2019-05-10T11:09:47.534Z,1.60
2019-05-10T11:10:47.507Z,1.90
2019-05-10T11:11:47.520Z,1.70
2019-05-10T11:12:47.501Z,1.80
2019-05-10T11:13:57.537Z,1.70
2019-05-10T11:14:48.470Z,2.10
2019-05-10T11:15:47.470Z,1.70
2019-05-10T11:16:52.999Z,1.90
2019-05-10T11:17:50.539Z,1.90
2019-05-10T11:18:47.426Z,2.10
2019-05-10T11:19:47.418Z,1.60
2019-05-10T11:20:49.456Z,1.90
2019-05-10T11:21:47.397Z,1.80
2019-05-10T11:22:49.808Z,1.50
2019-05-10T11:23:48.364Z,1.60
2019-05-10T11:24:51.758Z,1.90
2019-05-10T11:25:51.480Z,1.60
2019-05-10T11:26:48.341Z,1.50
2019-05-10T11:27:47.602Z,1.80
2019-05-10T11:28:48.330Z,1.80
2019-05-10T11:29:47.300Z,1.60
2019-05-10T11:30:47.294Z,1.60
2019-05-10T11:31:50.167Z,1.80
2019-05-10T11:32:48.282Z,1.80
2019-05-10T11:33:53.813Z,1.70
2019-05-10T11:34:48.261Z,1.70
2019-05-10T11:35:47.235Z,1.70
2019-05-10T11:36:48.335Z,1.70
2019-05-10T11:37:47.224Z,1.50
2019-05-10T11:38:56.906Z,1.70
2019-05-10T11:39:50.349Z,1.70
2019-05-10T11:40:47.186Z,1.50
2019-05-10T11:41:52.942Z,1.60
2019-05-10T11:42:48.176Z,1.70
2019-05-10T11:43:47.164Z,1.50
2019-05-10T11:44:54.306Z,1.80
2019-05-10T11:45:48.131Z,1.70
2019-05-10T11:46:47.120Z,1.50
2019-05-10T11:47:48.222Z,1.70
2019-05-10T11:48:48.128Z,1.70
2019-05-10T11:49:47.093Z,1.60
2019-05-10T11:50:47.069Z,1.50
2019-05-10T11:51:47.963Z,1.50
2019-05-10T11:52:51.045Z,1.50
2019-05-10T11:53:49.112Z,1.50
2019-05-10T11:54:48.047Z,1.60
2019-05-10T11:55:47.029Z,1.50
2019-05-10T11:56:47.018Z,1.70
2019-05-10T11:58:00.105Z,1.70
2019-05-10T11:58:54.970Z,1.60
2019-05-10T11:59:47.984Z,1.70
2019-05-10T12:00:46.976Z,1.80
2019-05-10T12:01:54.808Z,1.60
2019-05-10T12:03:06.678Z,1.60
2019-05-10T12:03:47.944Z,1.40
2019-05-10T12:04:46.932Z,1.60
2019-05-10T12:05:53.209Z,1.60
2019-05-10T12:06:50.383Z,1.60
2019-05-10T12:07:46.891Z,1.50
2019-05-10T12:08:46.940Z,1.50
2019-05-10T12:09:53.365Z,1.50
2019-05-10T12:10:52.790Z,1.60
2019-05-10T12:11:56.664Z,1.50
2019-05-10T12:13:04.857Z,1.60
2019-05-10T12:13:47.821Z,1.50
2019-05-10T12:14:46.897Z,1.60
2019-05-10T12:15:46.807Z,1.60
2019-05-10T12:16:46.791Z,1.70
2019-05-10T12:17:53.624Z,1.60
2019-05-10T12:19:05.548Z,1.70
2019-05-10T12:19:54.909Z,1.70
2019-05-10T12:21:47.735Z,1.50
2019-05-10T12:23:52.008Z,1.80
2019-05-10T12:25:11.367Z,1.70
2019-05-10T12:26:05.557Z,1.40
2019-05-10T12:26:17.620Z,1.80
2019-05-10T12:26:33.770Z,1.80
2019-05-10T12:27:12.697Z,1.70
2019-05-10T12:27:49.059Z,1.60
2019-05-10T12:28:46.664Z,1.50
2019-05-10T12:29:51.836Z,1.60
2019-05-10T12:30:47.627Z,1.60
2019-05-10T12:31:47.445Z,1.50
2019-05-10T12:32:56.536Z,1.40
2019-05-10T12:33:47.601Z,1.50
2019-05-10T12:34:54.186Z,1.60
2019-05-10T12:35:47.663Z,1.80
2019-05-10T12:36:46.573Z,1.60
2019-05-10T12:37:51.402Z,1.70
2019-05-10T12:38:47.568Z,1.70
2019-05-10T12:39:46.541Z,1.90
2019-05-10T12:40:46.531Z,1.70
2019-05-10T12:41:49.782Z,1.60
2019-05-10T12:42:47.502Z,1.70
2019-05-10T12:43:48.457Z,1.70
2019-05-10T12:44:48.234Z,1.70
2019-05-10T12:45:46.492Z,1.80
2019-05-10T12:46:46.457Z,1.70
2019-05-10T12:47:46.442Z,1.60
2019-05-10T12:48:46.465Z,1.70
2019-05-10T12:49:46.444Z,1.70
2019-05-10T12:50:46.410Z,1.70
2019-05-10T12:51:46.416Z,1.50
2019-05-10T12:52:53.555Z,1.70
2019-05-10T12:53:49.224Z,1.60
2019-05-10T12:54:46.419Z,1.80
2019-05-10T12:55:46.359Z,1.90
2019-05-10T12:56:46.365Z,1.80
2019-05-10T12:57:46.359Z,1.60
2019-05-10T12:58:56.578Z,2.00
2019-05-10T12:59:47.319Z,1.60
2019-05-10T13:00:52.232Z,1.70
2019-05-10T13:01:47.301Z,1.80
2019-05-10T13:02:51.438Z,1.60
2019-05-10T13:03:47.286Z,1.90
2019-05-10T13:04:47.247Z,1.50
2019-05-10T13:05:52.654Z,1.80
2019-05-10T13:06:47.359Z,1.70
2019-05-10T13:07:46.241Z,1.60
2019-05-10T13:08:46.244Z,1.60
2019-05-10T13:09:49.643Z,1.60
2019-05-10T13:10:49.696Z,1.80
2019-05-10T13:11:46.181Z,1.80
2019-05-10T13:12:49.107Z,1.70
2019-05-10T13:13:46.171Z,1.70
2019-05-10T13:14:51.926Z,1.70
2019-05-10T13:15:47.133Z,1.60
2019-05-10T13:16:46.123Z,1.70
2019-05-10T13:17:50.398Z,1.70
2019-05-10T13:18:51.959Z,1.90